createdAt,value
2023-04-12T00:00:49.603Z,7.75
2023-04-12T00:01:48.605Z,7.75
2023-04-12T00:02:48.719Z,7.83
2023-04-12T00:03:48.653Z,7.73
2023-04-12T00:04:48.718Z,7.76
2023-04-12T00:05:48.607Z,7.75
2023-04-12T00:06:49.563Z,7.72
2023-04-12T00:07:48.545Z,7.73
2023-04-12T00:08:48.553Z,7.70
2023-04-12T00:09:48.539Z,7.73
2023-04-12T00:10:48.529Z,7.73
2023-04-12T00:11:48.542Z,7.73
2023-04-12T00:12:49.535Z,7.73
2023-04-12T00:13:48.512Z,7.70
2023-04-12T00:14:48.507Z,7.69
2023-04-12T00:15:48.505Z,7.66
2023-04-12T00:16:48.501Z,7.69
2023-04-12T00:17:48.508Z,7.63
2023-04-12T00:18:49.504Z,7.58
2023-04-12T00:19:48.465Z,7.61
2023-04-12T00:20:48.470Z,7.56
2023-04-12T00:21:48.493Z,7.57
2023-04-12T00:22:48.459Z,7.58
2023-04-12T00:23:48.442Z,7.63
2023-04-12T00:24:49.469Z,7.61
2023-04-12T00:25:48.442Z,7.67
2023-04-12T00:26:48.450Z,7.60
2023-04-12T00:27:48.415Z,7.60
2023-04-12T00:28:48.414Z,7.63
2023-04-12T00:29:48.392Z,7.66
2023-04-12T00:30:49.414Z,7.60
2023-04-12T00:31:48.659Z,7.54
2023-04-12T00:32:48.409Z,7.61
2023-04-12T00:33:48.436Z,7.50
2023-04-12T00:34:48.389Z,7.56
2023-04-12T00:35:48.401Z,7.45
2023-04-12T00:36:49.362Z,7.54
2023-04-12T00:37:48.347Z,7.54
2023-04-12T00:38:48.343Z,7.51
2023-04-12T00:39:48.323Z,7.39
2023-04-12T00:40:48.340Z,7.43
2023-04-12T00:41:48.320Z,7.43
2023-04-12T00:42:49.334Z,7.36
2023-04-12T00:43:48.297Z,7.50
2023-04-12T00:44:48.310Z,7.48
2023-04-12T00:45:48.285Z,7.42
2023-04-12T00:46:48.368Z,7.39
2023-04-12T00:47:48.314Z,7.43
2023-04-12T00:48:49.300Z,7.43
2023-04-12T00:49:48.253Z,7.40
2023-04-12T00:50:48.273Z,7.32
2023-04-12T00:51:48.247Z,7.33
2023-04-12T00:52:48.248Z,7.35
2023-04-12T00:53:48.236Z,7.39
2023-04-12T00:54:49.248Z,7.35
2023-04-12T00:55:48.226Z,7.31
2023-04-12T00:56:48.236Z,7.29
2023-04-12T00:57:48.212Z,7.25
2023-04-12T00:58:48.216Z,7.28
2023-04-12T00:59:48.193Z,7.25
2023-04-12T01:00:49.230Z,7.33
2023-04-12T01:01:48.277Z,7.28
2023-04-12T01:02:48.317Z,7.21
2023-04-12T01:03:48.269Z,7.21
2023-04-12T01:04:48.182Z,7.18
2023-04-12T01:05:48.160Z,7.23
2023-04-12T01:06:49.168Z,7.20
2023-04-12T01:07:48.143Z,7.17
2023-04-12T01:08:48.138Z,7.20
2023-04-12T01:09:48.113Z,7.20
2023-04-12T01:10:48.129Z,7.23
2023-04-12T01:11:48.100Z,7.31
2023-04-12T01:12:49.127Z,7.21
2023-04-12T01:13:48.094Z,7.21
2023-04-12T01:14:48.092Z,7.20
2023-04-12T01:15:48.116Z,7.13
2023-04-12T01:16:48.109Z,7.17
2023-04-12T01:17:48.095Z,7.25
2023-04-12T01:18:49.076Z,7.18
2023-04-12T01:19:48.049Z,7.20
2023-04-12T01:20:48.060Z,7.18
2023-04-12T01:21:48.045Z,7.24
2023-04-12T01:22:48.044Z,7.18
2023-04-12T01:23:48.022Z,7.18
2023-04-12T01:24:49.030Z,7.18
2023-04-12T01:25:48.090Z,7.18
2023-04-12T01:26:48.016Z,7.21
2023-04-12T01:27:48.003Z,7.21
2023-04-12T01:28:47.990Z,7.18
2023-04-12T01:29:47.980Z,7.15
2023-04-12T01:30:48.992Z,7.18
2023-04-12T01:31:48.022Z,7.13
2023-04-12T01:32:47.995Z,7.13
2023-04-12T01:33:47.947Z,7.06
2023-04-12T01:34:47.956Z,7.07
2023-04-12T01:35:47.975Z,7.06
2023-04-12T01:36:48.953Z,7.05
2023-04-12T01:37:47.937Z,7.10
2023-04-12T01:38:47.932Z,7.07
2023-04-12T01:39:47.911Z,7.07
2023-04-12T01:40:47.911Z,6.96
2023-04-12T01:41:47.916Z,7.02
2023-04-12T01:42:48.947Z,7.05
2023-04-12T01:43:47.882Z,6.96
2023-04-12T01:44:47.880Z,6.97
2023-04-12T01:45:47.912Z,7.05
2023-04-12T01:46:47.868Z,6.97
2023-04-12T01:47:47.893Z,6.89
2023-04-12T01:48:48.867Z,6.95
2023-04-12T01:49:47.849Z,6.93
2023-04-12T01:50:47.853Z,6.89
2023-04-12T01:51:47.834Z,6.93
2023-04-12T01:52:47.843Z,6.95
2023-04-12T01:53:47.823Z,6.96
2023-04-12T01:54:48.827Z,6.96
2023-04-12T01:55:47.806Z,6.89
2023-04-12T01:56:47.822Z,6.89
2023-04-12T01:57:47.794Z,6.92
2023-04-12T01:58:47.790Z,6.89
2023-04-12T01:59:47.778Z,6.82
2023-04-12T02:00:48.805Z,6.85
2023-04-12T02:01:47.834Z,6.84
2023-04-12T02:02:47.827Z,6.84
2023-04-12T02:03:47.771Z,6.85
2023-04-12T02:04:47.758Z,6.81
2023-04-12T02:05:47.726Z,6.85
2023-04-12T02:06:48.752Z,6.79
2023-04-12T02:07:47.759Z,6.85
2023-04-12T02:08:47.712Z,6.79
2023-04-12T02:09:47.714Z,6.81
2023-04-12T02:10:47.700Z,6.82
2023-04-12T02:11:47.714Z,6.85
2023-04-12T02:12:48.699Z,6.88
2023-04-12T02:13:47.659Z,6.81
2023-04-12T02:14:47.683Z,6.92
2023-04-12T02:15:47.655Z,6.75
2023-04-12T02:16:47.730Z,6.79
2023-04-12T02:17:47.693Z,6.79
2023-04-12T02:18:48.651Z,6.74
2023-04-12T02:19:47.625Z,6.70
2023-04-12T02:20:47.624Z,6.75
2023-04-12T02:21:47.605Z,6.75
2023-04-12T02:22:47.630Z,6.75
2023-04-12T02:23:47.590Z,6.75
2023-04-12T02:24:48.610Z,6.77
2023-04-12T02:25:47.635Z,6.74
2023-04-12T02:26:47.600Z,6.67
2023-04-12T02:27:47.565Z,6.67
2023-04-12T02:28:47.564Z,6.70
2023-04-12T02:29:47.553Z,6.74
2023-04-12T02:30:48.575Z,6.77
2023-04-12T02:31:47.533Z,6.81
2023-04-12T02:32:47.572Z,6.70
2023-04-12T02:33:47.515Z,6.77
2023-04-12T02:34:47.545Z,6.78
2023-04-12T02:35:47.551Z,6.77
2023-04-12T02:36:48.533Z,6.74
2023-04-12T02:37:47.492Z,6.63
2023-04-12T02:38:47.499Z,6.69
2023-04-12T02:39:47.470Z,6.72
2023-04-12T02:40:47.488Z,6.74
2023-04-12T02:41:47.470Z,6.70
2023-04-12T02:42:48.495Z,6.72
2023-04-12T02:43:47.444Z,6.81
2023-04-12T02:44:47.454Z,6.77
2023-04-12T02:45:47.475Z,6.72
2023-04-12T02:46:47.433Z,6.62
2023-04-12T02:47:47.477Z,6.63
2023-04-12T02:48:48.428Z,6.64
2023-04-12T02:49:47.421Z,6.60
2023-04-12T02:50:47.392Z,6.62
2023-04-12T02:51:47.394Z,6.64
2023-04-12T02:52:47.377Z,6.60
2023-04-12T02:53:47.394Z,6.66
2023-04-12T02:54:48.384Z,6.59
2023-04-12T02:55:47.373Z,6.60
2023-04-12T02:56:47.359Z,6.60
2023-04-12T02:57:47.381Z,6.57
2023-04-12T02:58:47.339Z,6.62
2023-04-12T02:59:47.345Z,6.51
2023-04-12T03:00:48.360Z,6.64
2023-04-12T03:01:47.427Z,6.59
2023-04-12T03:02:47.459Z,6.51
2023-04-12T03:03:47.470Z,6.51
2023-04-12T03:04:47.303Z,6.45
2023-04-12T03:05:47.330Z,6.56
2023-04-12T03:06:48.284Z,6.52
2023-04-12T03:07:47.292Z,6.49
2023-04-12T03:08:47.274Z,6.51
2023-04-12T03:09:47.290Z,6.44
2023-04-12T03:10:47.258Z,6.46
2023-04-12T03:11:47.252Z,6.42
2023-04-12T03:12:48.263Z,6.48
2023-04-12T03:13:47.237Z,6.38
2023-04-12T03:14:47.215Z,6.36
2023-04-12T03:15:47.221Z,6.39
2023-04-12T03:16:47.216Z,6.39
2023-04-12T03:17:47.270Z,6.39
2023-04-12T03:18:48.203Z,6.44
2023-04-12T03:19:47.195Z,6.41
2023-04-12T03:20:47.869Z,6.33
2023-04-12T03:21:47.188Z,6.35
2023-04-12T03:22:47.156Z,6.44
2023-04-12T03:23:47.160Z,6.30
2023-04-12T03:24:48.154Z,6.33
2023-04-12T03:25:47.176Z,6.35
2023-04-12T03:26:47.162Z,6.27
2023-04-12T03:27:47.161Z,6.33
2023-04-12T03:28:47.152Z,6.35
2023-04-12T03:29:47.145Z,6.28
2023-04-12T03:30:48.121Z,6.33
2023-04-12T03:31:47.096Z,6.30
2023-04-12T03:32:47.167Z,6.24
2023-04-12T03:33:47.119Z,6.28
2023-04-12T03:34:47.082Z,6.26
2023-04-12T03:35:47.125Z,6.26
2023-04-12T03:36:48.084Z,6.33
2023-04-12T03:37:47.071Z,6.36
2023-04-12T03:38:47.071Z,6.30
2023-04-12T03:39:47.109Z,6.30
2023-04-12T03:40:47.112Z,6.30
2023-04-12T03:41:47.090Z,6.33
2023-04-12T03:42:48.032Z,6.28
2023-04-12T03:43:47.028Z,6.27
2023-04-12T03:44:47.025Z,6.27
2023-04-12T03:45:47.007Z,6.24
2023-04-12T03:46:47.034Z,6.26
2023-04-12T03:47:47.015Z,6.24
2023-04-12T03:48:47.969Z,6.27
2023-04-12T03:49:57.618Z,6.26
2023-04-12T03:50:46.950Z,6.27
2023-04-12T03:51:46.954Z,6.28
2023-04-12T03:52:46.926Z,6.35
2023-04-12T03:53:46.930Z,6.24
2023-04-12T03:54:47.939Z,6.14
2023-04-12T03:55:46.922Z,6.20
2023-04-12T03:56:46.935Z,6.17
2023-04-12T03:57:46.931Z,6.16
2023-04-12T03:58:46.920Z,6.17
2023-04-12T03:59:46.887Z,6.14
2023-04-12T04:00:47.880Z,6.19
2023-04-12T04:01:46.907Z,6.24
2023-04-12T04:02:46.906Z,6.24
2023-04-12T04:03:47.020Z,6.11
2023-04-12T04:04:46.896Z,6.20
2023-04-12T04:05:46.857Z,6.16
2023-04-12T04:06:47.843Z,6.12
2023-04-12T04:07:46.841Z,6.09
2023-04-12T04:08:46.819Z,6.08
2023-04-12T04:09:46.813Z,6.14
2023-04-12T04:10:46.800Z,6.05
2023-04-12T04:11:46.843Z,6.02
2023-04-12T04:12:47.817Z,6.02
2023-04-12T04:13:46.852Z,5.98
2023-04-12T04:14:46.787Z,6.05
2023-04-12T04:15:46.793Z,6.05
2023-04-12T04:16:46.803Z,6.04
2023-04-12T04:17:46.809Z,5.99
2023-04-12T04:18:47.745Z,6.05
2023-04-12T04:19:46.738Z,6.04
2023-04-12T04:20:46.736Z,6.05
2023-04-12T04:21:46.875Z,6.08
2023-04-12T04:22:46.714Z,6.04
2023-04-12T04:23:46.757Z,6.02
2023-04-12T04:24:47.716Z,6.05
2023-04-12T04:25:46.692Z,6.07
2023-04-12T04:26:46.703Z,6.05
2023-04-12T04:27:46.681Z,6.09
2023-04-12T04:28:46.664Z,6.11
2023-04-12T04:29:46.682Z,6.08
2023-04-12T04:30:47.648Z,6.02
2023-04-12T04:31:46.684Z,6.07
2023-04-12T04:32:46.673Z,6.01
2023-04-12T04:33:46.630Z,6.04
2023-04-12T04:34:46.625Z,5.97
2023-04-12T04:35:46.652Z,5.98
2023-04-12T04:36:47.610Z,6.11
2023-04-12T04:37:46.602Z,6.05
2023-04-12T04:38:46.590Z,6.01
2023-04-12T04:39:46.587Z,6.09
2023-04-12T04:40:46.571Z,5.99
2023-04-12T04:41:46.707Z,5.99
2023-04-12T04:42:47.556Z,6.02
2023-04-12T04:43:46.547Z,5.97
2023-04-12T04:44:46.535Z,5.99
2023-04-12T04:45:46.573Z,6.01
2023-04-12T04:46:46.525Z,6.01
2023-04-12T04:47:46.604Z,5.94
2023-04-12T04:48:47.522Z,6.07
2023-04-12T04:49:46.517Z,6.11
2023-04-12T04:50:46.489Z,6.07
2023-04-12T04:51:46.498Z,6.07
2023-04-12T04:52:46.513Z,6.05
2023-04-12T04:53:46.488Z,6.04
2023-04-12T04:54:47.472Z,6.07
2023-04-12T04:55:46.469Z,6.07
2023-04-12T04:56:46.463Z,6.01
2023-04-12T04:57:46.470Z,6.02
2023-04-12T04:58:46.445Z,6.02
2023-04-12T04:59:46.426Z,6.05
2023-04-12T05:00:47.463Z,6.11
2023-04-12T05:01:46.516Z,6.01
2023-04-12T05:02:46.526Z,6.02
2023-04-12T05:03:46.503Z,6.04
2023-04-12T05:04:46.386Z,6.08
2023-04-12T05:05:46.417Z,6.12
2023-04-12T05:06:47.387Z,6.05
2023-04-12T05:07:46.362Z,6.08
2023-04-12T05:08:46.366Z,6.09
2023-04-12T05:09:46.354Z,6.11
2023-04-12T05:10:46.345Z,6.12
2023-04-12T05:11:46.344Z,6.09
2023-04-12T05:12:47.325Z,6.11
2023-04-12T05:13:46.322Z,6.12
2023-04-12T05:14:49.870Z,6.17
2023-04-12T05:15:46.320Z,6.17
2023-04-12T05:16:46.331Z,6.16
2023-04-12T05:17:46.334Z,6.24
2023-04-12T05:18:47.358Z,6.22
2023-04-12T05:19:46.287Z,6.26
2023-04-12T05:20:46.271Z,6.24
2023-04-12T05:21:46.272Z,6.31
2023-04-12T05:22:46.282Z,6.28
2023-04-12T05:23:46.252Z,6.24
2023-04-12T05:24:47.258Z,6.20
2023-04-12T05:25:46.224Z,6.28
2023-04-12T05:26:46.236Z,6.26
2023-04-12T05:27:46.238Z,6.27
2023-04-12T05:28:46.197Z,6.26
2023-04-12T05:29:46.199Z,6.30
2023-04-12T05:30:47.301Z,6.28
2023-04-12T05:31:46.198Z,6.24
2023-04-12T05:32:46.208Z,6.38
2023-04-12T05:33:46.188Z,6.33
2023-04-12T05:34:46.153Z,6.45
2023-04-12T05:35:46.225Z,6.39
2023-04-12T05:36:47.192Z,6.30
2023-04-12T05:37:46.172Z,6.44
2023-04-12T05:38:46.164Z,6.35
2023-04-12T05:39:46.128Z,6.44
2023-04-12T05:40:46.133Z,6.44
2023-04-12T05:41:46.132Z,6.44
2023-04-12T05:42:47.123Z,6.39
2023-04-12T05:43:46.169Z,6.41
2023-04-12T05:44:48.605Z,6.27
2023-04-12T05:45:46.215Z,6.27
2023-04-12T05:46:46.151Z,6.26
2023-04-12T05:47:46.102Z,6.33
2023-04-12T05:48:47.148Z,6.33
2023-04-12T05:49:46.105Z,6.36
2023-04-12T05:50:46.077Z,6.30
2023-04-12T05:51:46.067Z,6.30
2023-04-12T05:52:46.040Z,6.38
2023-04-12T05:53:46.039Z,6.44
2023-04-12T05:54:47.028Z,6.45
2023-04-12T05:55:46.042Z,6.48
2023-04-12T05:56:46.035Z,6.48
2023-04-12T05:57:46.015Z,6.56
2023-04-12T05:58:45.999Z,6.56
2023-04-12T05:59:45.995Z,6.59
2023-04-12T06:00:47.015Z,6.64
2023-04-12T06:01:45.994Z,6.67
2023-04-12T06:02:46.176Z,6.62
2023-04-12T06:03:46.039Z,6.67
2023-04-12T06:04:50.374Z,6.59
2023-04-12T06:05:46.063Z,6.70
2023-04-12T06:06:46.948Z,6.72
2023-04-12T06:07:45.933Z,6.75
2023-04-12T06:08:45.916Z,6.72
2023-04-12T06:09:45.933Z,6.81
2023-04-12T06:10:45.994Z,6.87
2023-04-12T06:11:45.929Z,6.88
2023-04-12T06:12:46.916Z,6.84
2023-04-12T06:13:45.932Z,6.88
2023-04-12T06:14:45.873Z,6.82
2023-04-12T06:15:45.916Z,6.89
2023-04-12T06:16:45.883Z,6.89
2023-04-12T06:17:45.942Z,6.85
2023-04-12T06:18:46.909Z,6.82
2023-04-12T06:19:45.907Z,6.87
2023-04-12T06:20:45.836Z,6.88
2023-04-12T06:21:45.903Z,6.89
2023-04-12T06:22:45.823Z,6.97
2023-04-12T06:23:45.872Z,7.07
2023-04-12T06:24:46.823Z,7.03
2023-04-12T06:25:45.820Z,7.15
2023-04-12T06:26:45.789Z,7.20
2023-04-12T06:27:45.809Z,7.24
2023-04-12T06:28:45.860Z,7.32
2023-04-12T06:29:45.807Z,7.54
2023-04-12T06:30:46.790Z,7.72
2023-04-12T06:31:45.941Z,7.85
2023-04-12T06:32:45.797Z,8.12
2023-04-12T06:33:45.784Z,8.33
2023-04-12T06:34:45.756Z,8.52
2023-04-12T06:35:45.823Z,8.82
2023-04-12T06:36:46.793Z,8.92
2023-04-12T06:37:45.943Z,9.31
2023-04-12T06:38:45.755Z,9.58
2023-04-12T06:39:45.809Z,9.87
2023-04-12T06:40:45.766Z,10.07
2023-04-12T06:41:45.759Z,10.19
2023-04-12T06:42:46.742Z,10.35
2023-04-12T06:43:45.765Z,10.61
2023-04-12T06:44:45.735Z,10.74
2023-04-12T06:45:45.754Z,10.92
2023-04-12T06:46:45.816Z,10.93
2023-04-12T06:47:45.765Z,11.04
2023-04-12T06:48:46.769Z,11.22
2023-04-12T06:49:45.759Z,11.32
2023-04-12T06:50:45.827Z,11.50
2023-04-12T06:51:45.773Z,11.59
2023-04-12T06:52:52.954Z,11.66
2023-04-12T06:54:50.747Z,11.73
2023-04-12T06:55:50.257Z,11.80
2023-04-12T06:56:50.266Z,11.94
2023-04-12T06:57:50.262Z,12.02
2023-04-12T06:58:50.276Z,12.10
2023-04-12T06:59:50.339Z,12.25
2023-04-12T07:00:50.343Z,12.35
2023-04-12T07:01:50.333Z,12.46
2023-04-12T07:02:50.427Z,12.61
2023-04-12T07:03:50.388Z,12.83
2023-04-12T07:04:50.322Z,13.04
2023-04-12T07:05:50.327Z,13.37
2023-04-12T07:06:50.345Z,13.49
2023-04-12T07:07:50.392Z,13.46
2023-04-12T07:08:50.363Z,13.60
2023-04-12T07:09:50.400Z,13.74
2023-04-12T07:10:50.500Z,13.71
2023-04-12T07:11:50.392Z,13.74
2023-04-12T07:12:50.406Z,13.77
2023-04-12T07:13:50.438Z,13.89
2023-04-12T07:14:50.427Z,13.89
2023-04-12T07:15:50.461Z,13.99
2023-04-12T07:16:50.785Z,14.15
2023-04-12T07:17:50.490Z,14.17
2023-04-12T07:18:50.488Z,14.35
2023-04-12T07:19:50.490Z,14.51
2023-04-12T07:20:50.511Z,14.79
2023-04-12T07:21:50.523Z,14.99
2023-04-12T07:22:50.543Z,15.09
2023-04-12T07:23:50.549Z,15.00
2023-04-12T07:24:50.578Z,15.15
2023-04-12T07:25:50.565Z,15.14
2023-04-12T07:26:50.576Z,15.09
2023-04-12T07:27:51.819Z,15.21
2023-04-12T07:28:50.653Z,15.29
2023-04-12T07:29:50.609Z,15.36
2023-04-12T07:30:50.632Z,15.39
2023-04-12T07:31:50.679Z,15.35
2023-04-12T07:32:50.751Z,15.49
2023-04-12T07:33:50.759Z,15.61
2023-04-12T07:34:50.719Z,15.75
2023-04-12T07:35:50.719Z,15.77
2023-04-12T07:36:50.710Z,15.94
2023-04-12T07:37:50.710Z,15.95
2023-04-12T07:38:50.751Z,16.10
2023-04-12T07:39:50.852Z,16.17
2023-04-12T07:40:50.768Z,16.23
2023-04-12T07:41:50.755Z,16.13
2023-04-12T07:42:50.787Z,16.21
2023-04-12T07:43:50.811Z,16.32
2023-04-12T07:44:50.802Z,16.32
2023-04-12T07:45:50.922Z,16.35
2023-04-12T07:46:50.890Z,16.39
2023-04-12T07:47:50.883Z,16.56
2023-04-12T07:48:50.930Z,16.65
2023-04-12T07:49:50.864Z,16.74
2023-04-12T07:50:50.909Z,16.87
2023-04-12T07:51:50.899Z,17.05
2023-04-12T07:52:50.918Z,17.08
2023-04-12T07:53:50.936Z,16.99
2023-04-12T07:54:50.949Z,16.84
2023-04-12T07:55:50.940Z,16.83
2023-04-12T07:56:50.989Z,16.84
2023-04-12T07:57:50.970Z,16.72
2023-04-12T07:58:50.978Z,16.65
2023-04-12T07:59:51.001Z,16.71
2023-04-12T08:00:51.038Z,16.58
2023-04-12T08:01:51.087Z,16.53
2023-04-12T08:02:51.169Z,16.49
2023-04-12T08:03:51.187Z,16.33
2023-04-12T08:04:51.322Z,16.05
2023-04-12T08:05:51.158Z,16.00
2023-04-12T08:06:51.137Z,15.92
2023-04-12T08:07:51.128Z,15.76
2023-04-12T08:08:51.119Z,15.76
2023-04-12T08:09:51.161Z,15.61
2023-04-12T08:10:51.145Z,15.62
2023-04-12T08:11:51.255Z,15.64
2023-04-12T08:12:51.185Z,15.58
2023-04-12T08:13:51.183Z,15.57
2023-04-12T08:14:51.196Z,15.57
2023-04-12T08:15:52.255Z,15.68
2023-04-12T08:16:51.250Z,15.65
2023-04-12T08:17:51.305Z,15.72
2023-04-12T08:18:51.321Z,15.79
2023-04-12T08:19:51.303Z,15.88
2023-04-12T08:20:51.279Z,15.84
2023-04-12T08:21:51.350Z,15.98
2023-04-12T08:22:51.282Z,16.00
2023-04-12T08:23:51.302Z,15.83
2023-04-12T08:24:51.312Z,15.79
2023-04-12T08:25:51.315Z,15.70
2023-04-12T08:26:51.331Z,15.72
2023-04-12T08:27:51.404Z,15.68
2023-04-12T08:28:51.360Z,15.64
2023-04-12T08:29:51.354Z,15.73
2023-04-12T08:30:51.436Z,15.67
2023-04-12T08:31:51.390Z,15.58
2023-04-12T08:32:51.406Z,15.52
2023-04-12T08:33:51.377Z,15.54
2023-04-12T08:34:51.383Z,15.61
2023-04-12T08:35:51.454Z,15.47
2023-04-12T08:36:51.413Z,15.49
2023-04-12T08:37:51.429Z,15.49
2023-04-12T08:38:51.408Z,15.47
2023-04-12T08:39:51.439Z,15.52
2023-04-12T08:40:51.423Z,15.52
2023-04-12T08:41:51.453Z,15.44
2023-04-12T08:42:51.428Z,15.35
2023-04-12T08:43:51.428Z,15.39
2023-04-12T08:44:51.436Z,15.36
2023-04-12T08:45:51.459Z,15.39
2023-04-12T08:46:53.453Z,15.28
2023-04-12T08:47:51.483Z,15.36
2023-04-12T08:48:51.445Z,15.39
2023-04-12T08:49:51.445Z,15.35
2023-04-12T08:50:51.465Z,15.42
2023-04-12T08:51:51.439Z,15.51
2023-04-12T08:52:51.557Z,15.55
2023-04-12T08:53:51.452Z,15.61
2023-04-12T08:54:51.448Z,15.75
2023-04-12T08:55:51.453Z,15.92
2023-04-12T08:56:51.498Z,15.98
2023-04-12T08:57:51.550Z,15.90
2023-04-12T08:58:51.487Z,15.88
2023-04-12T08:59:51.455Z,15.77
2023-04-12T09:00:51.504Z,15.72
2023-04-12T09:01:51.579Z,15.67
2023-04-12T09:02:51.669Z,15.46
2023-04-12T09:03:51.568Z,15.52
2023-04-12T09:04:51.595Z,15.49
2023-04-12T09:05:51.468Z,15.51
2023-04-12T09:06:51.452Z,15.47
2023-04-12T09:07:51.471Z,15.49
2023-04-12T09:08:51.458Z,15.61
2023-04-12T09:09:51.520Z,15.52
2023-04-12T09:10:51.516Z,15.55
2023-04-12T09:11:51.467Z,15.40
2023-04-12T09:12:52.896Z,15.35
2023-04-12T09:13:51.467Z,15.39
2023-04-12T09:14:51.471Z,15.39
2023-04-12T09:15:51.491Z,15.33
2023-04-12T09:16:51.528Z,15.29
2023-04-12T09:17:51.490Z,15.37
2023-04-12T09:18:51.509Z,15.40
2023-04-12T09:19:51.500Z,15.42
2023-04-12T09:20:51.453Z,15.43
2023-04-12T09:21:51.481Z,15.29
2023-04-12T09:22:51.452Z,15.21
2023-04-12T09:23:51.467Z,15.14
2023-04-12T09:24:51.484Z,15.03
2023-04-12T09:25:51.452Z,14.99
2023-04-12T09:26:51.449Z,14.99
2023-04-12T09:27:51.448Z,15.02
2023-04-12T09:28:51.489Z,15.02
2023-04-12T09:29:51.603Z,14.84
2023-04-12T09:30:51.500Z,14.85
2023-04-12T09:31:51.479Z,14.79
2023-04-12T09:32:51.482Z,14.62
2023-04-12T09:33:51.449Z,14.55
2023-04-12T09:34:51.465Z,14.62
2023-04-12T09:35:51.732Z,14.62
2023-04-12T09:36:51.485Z,14.48
2023-04-12T09:37:51.494Z,14.51
2023-04-12T09:38:51.455Z,14.54
2023-04-12T09:39:51.447Z,14.59
2023-04-12T09:40:51.444Z,14.63
2023-04-12T09:41:51.456Z,14.58
2023-04-12T09:42:51.465Z,14.60
2023-04-12T09:43:51.466Z,14.65
2023-04-12T09:44:51.436Z,14.55
2023-04-12T09:45:51.476Z,14.48
2023-04-12T09:46:51.456Z,14.60
2023-04-12T09:47:51.486Z,14.59
2023-04-12T09:48:51.428Z,14.65
2023-04-12T09:49:51.412Z,14.68
2023-04-12T09:50:51.427Z,14.69
2023-04-12T09:51:51.463Z,14.73
2023-04-12T09:52:51.455Z,14.73
2023-04-12T09:53:51.451Z,14.65
2023-04-12T09:54:51.433Z,14.66
2023-04-12T09:55:51.428Z,14.65
2023-04-12T09:56:51.470Z,14.62
2023-04-12T09:57:51.418Z,14.54
2023-04-12T09:58:51.393Z,14.58
2023-04-12T09:59:51.392Z,14.50
2023-04-12T10:00:51.409Z,14.48
2023-04-12T10:01:51.440Z,14.54
2023-04-12T10:02:52.277Z,14.63
2023-04-12T10:03:51.532Z,14.66
2023-04-12T10:04:51.630Z,14.48
2023-04-12T10:05:51.434Z,14.51
2023-04-12T10:06:51.377Z,14.58
2023-04-12T10:07:51.441Z,14.62
2023-04-12T10:08:51.405Z,14.60
2023-04-12T10:09:51.390Z,14.60
2023-04-12T10:10:51.393Z,14.54
2023-04-12T10:11:51.387Z,14.55
2023-04-12T10:12:51.376Z,14.47
2023-04-12T10:13:51.403Z,14.50
2023-04-12T10:14:51.375Z,14.54
2023-04-12T10:15:51.395Z,14.37
2023-04-12T10:18:34.143Z,14.41
2023-04-12T10:19:34.086Z,14.33
2023-04-12T10:20:34.102Z,14.37
2023-04-12T10:21:34.068Z,14.30
2023-04-12T10:22:34.092Z,14.41
2023-04-12T10:23:34.086Z,14.35
2023-04-12T10:24:34.091Z,14.37
2023-04-12T10:25:34.063Z,14.40
2023-04-12T10:26:34.150Z,14.33
2023-04-12T10:27:34.107Z,14.32
2023-04-12T10:28:34.134Z,14.33
2023-04-12T10:29:34.067Z,14.36
2023-04-12T10:30:34.094Z,14.29
2023-04-12T10:31:34.195Z,14.26
2023-04-12T10:32:35.373Z,14.28
2023-04-12T10:33:34.085Z,14.30
2023-04-12T10:34:34.091Z,14.18
2023-04-12T10:35:34.092Z,14.18
2023-04-12T10:36:34.086Z,14.14
2023-04-12T10:37:34.069Z,14.15
2023-04-12T10:38:36.082Z,14.22
2023-04-12T10:39:34.150Z,14.10
2023-04-12T10:40:34.097Z,14.12
2023-04-12T10:41:34.045Z,14.10
2023-04-12T10:42:34.069Z,14.04
2023-04-12T10:43:34.080Z,13.99
2023-04-12T10:44:34.044Z,14.00
2023-04-12T10:45:34.097Z,14.04
2023-04-12T10:46:34.153Z,13.99
2023-04-12T10:47:34.103Z,13.99
2023-04-12T10:48:34.044Z,13.97
2023-04-12T10:49:34.051Z,13.92
2023-04-12T10:50:34.047Z,14.05
2023-04-12T10:51:34.040Z,13.92
2023-04-12T10:52:34.169Z,13.96
2023-04-12T10:53:34.044Z,14.07
2023-04-12T10:54:34.030Z,14.03
2023-04-12T10:55:34.059Z,14.03
2023-04-12T10:56:34.042Z,14.11
2023-04-12T10:57:34.050Z,14.07
2023-04-12T10:58:34.023Z,14.10
2023-04-12T10:59:46.964Z,14.04
2023-04-12T11:00:34.121Z,14.07
2023-04-12T11:01:35.940Z,14.03
2023-04-12T11:02:34.137Z,14.03
2023-04-12T11:03:34.105Z,14.04
2023-04-12T11:04:34.073Z,13.99
2023-04-12T11:05:34.042Z,14.07
2023-04-12T11:06:34.021Z,13.89
2023-04-12T11:07:33.992Z,13.95
2023-04-12T11:08:33.987Z,13.95
2023-04-12T11:09:34.014Z,13.99
2023-04-12T11:10:34.138Z,13.99
2023-04-12T11:11:34.121Z,14.00
2023-04-12T11:12:34.129Z,14.05
2023-04-12T11:13:33.998Z,14.00
2023-04-12T11:14:33.988Z,14.04
2023-04-12T11:15:34.183Z,14.05
2023-04-12T11:16:34.072Z,14.00
2023-04-12T11:17:37.018Z,14.10
2023-04-12T11:18:34.072Z,14.03
2023-04-12T11:19:33.984Z,14.07
2023-04-12T11:20:33.982Z,14.07
2023-04-12T11:21:34.018Z,14.03
2023-04-12T11:22:33.991Z,14.07
2023-04-12T11:23:33.997Z,14.05
2023-04-12T11:24:33.974Z,14.11
2023-04-12T11:25:33.992Z,14.11
2023-04-12T11:26:33.960Z,14.12
2023-04-12T11:27:33.948Z,14.15
2023-04-12T11:28:35.352Z,14.14
2023-04-12T11:29:33.974Z,14.11
2023-04-12T11:30:33.953Z,14.08
2023-04-12T11:31:34.003Z,14.17
2023-04-12T11:32:34.079Z,14.18
2023-04-12T11:33:33.948Z,14.23
2023-04-12T11:34:33.950Z,14.25
2023-04-12T11:35:33.945Z,14.28
2023-04-12T11:36:33.930Z,14.26
2023-04-12T11:37:33.945Z,14.25
2023-04-12T11:38:33.936Z,14.30
2023-04-12T11:39:33.926Z,14.28
2023-04-12T11:40:33.938Z,14.33
2023-04-12T11:41:33.947Z,14.26
2023-04-12T11:42:33.962Z,14.28
2023-04-12T11:43:33.973Z,14.32
2023-04-12T11:44:48.192Z,14.30
2023-04-12T11:45:33.939Z,14.37
2023-04-12T11:46:33.919Z,14.33
2023-04-12T11:47:33.953Z,14.35
2023-04-12T11:48:34.130Z,14.35
2023-04-12T11:49:33.915Z,14.33
2023-04-12T11:50:33.912Z,14.37
2023-04-12T11:51:33.953Z,14.37
2023-04-12T11:52:33.953Z,14.37
2023-04-12T11:53:33.898Z,14.33
2023-04-12T11:54:34.058Z,14.59
2023-04-12T11:55:33.990Z,14.58
2023-04-12T11:56:33.895Z,14.53
2023-04-12T11:57:33.899Z,14.55
2023-04-12T11:58:34.011Z,14.43
2023-04-12T11:59:33.969Z,14.41
2023-04-12T12:00:33.895Z,14.35
2023-04-12T12:01:33.915Z,14.41
2023-04-12T12:02:41.246Z,14.45
2023-04-12T12:03:33.984Z,14.43
2023-04-12T12:04:34.164Z,14.33
2023-04-12T12:05:34.199Z,14.37
2023-04-12T12:06:34.001Z,14.33
2023-04-12T12:07:33.976Z,14.44
2023-04-12T12:08:33.922Z,14.36
2023-04-12T12:09:33.897Z,14.47
2023-04-12T12:11:33.865Z,14.45
2023-04-12T12:12:33.877Z,14.47
2023-04-12T12:13:33.884Z,14.51
2023-04-12T12:14:33.991Z,14.59
2023-04-12T12:15:33.894Z,14.51
2023-04-12T12:16:33.910Z,14.50
2023-04-12T12:17:33.876Z,14.50
2023-04-12T12:18:33.874Z,14.48
2023-04-12T12:19:33.870Z,14.55
2023-04-12T12:20:33.847Z,14.53
2023-04-12T12:21:33.910Z,14.60
2023-04-12T12:22:33.861Z,14.72
2023-04-12T12:23:33.846Z,14.72
2023-04-12T12:24:35.955Z,14.72
2023-04-12T12:25:33.840Z,14.69
2023-04-12T12:26:33.835Z,14.66
2023-04-12T12:27:33.896Z,14.78
2023-04-12T12:28:33.834Z,14.81
2023-04-12T12:29:33.833Z,14.88
2023-04-12T12:30:33.832Z,14.88
2023-04-12T12:31:33.938Z,14.89
2023-04-12T12:32:33.851Z,14.88
2023-04-12T12:34:33.848Z,14.91
2023-04-12T12:35:33.868Z,14.91
2023-04-12T12:36:33.952Z,14.88
2023-04-12T12:37:33.830Z,14.96
2023-04-12T12:38:34.455Z,14.92
2023-04-12T12:39:33.873Z,14.88
2023-04-12T12:40:34.843Z,14.89
2023-04-12T12:41:33.864Z,14.81
2023-04-12T12:42:33.825Z,14.81
2023-04-12T12:43:33.819Z,14.86
2023-04-12T12:44:36.323Z,14.85
2023-04-12T12:45:33.823Z,14.86
2023-04-12T12:46:48.747Z,14.81
2023-04-12T12:47:33.932Z,14.77
2023-04-12T12:48:33.898Z,14.82
2023-04-12T12:49:33.819Z,14.84
2023-04-12T12:50:33.847Z,14.89
2023-04-12T12:51:33.849Z,14.78
2023-04-12T12:52:34.839Z,14.81
2023-04-12T12:53:33.822Z,14.85
2023-04-12T12:54:41.098Z,14.79
2023-04-12T12:55:33.823Z,14.81
2023-04-12T12:56:33.803Z,14.79
2023-04-12T12:57:33.797Z,14.69
2023-04-12T12:58:34.862Z,14.65
2023-04-12T12:59:33.819Z,14.72
2023-04-12T13:00:33.801Z,14.63
2023-04-12T13:01:33.837Z,14.66
2023-04-12T13:02:33.999Z,14.68
2023-04-12T13:03:34.031Z,14.73
2023-04-12T13:04:34.875Z,14.66
2023-04-12T13:05:33.794Z,14.72
2023-04-12T13:06:33.814Z,14.68
2023-04-12T13:07:33.784Z,14.69
2023-04-12T13:08:33.818Z,14.69
2023-04-12T13:09:33.789Z,14.73
2023-04-12T13:10:34.840Z,14.82